Time;durP1;ratioP1;P1;durP2;ratioP2;P2;SDS_P1;SDS_P2;PMS_P1;PMS_P2;Temp;Humidity;BMP_temperature;BMP_pressure;BME280_temperature;BME280_humidity;BME280_pressure;Samples;Min_cycle;Max_cycle;Signal;HPM_P1;HPM_P2
2022/08/18 00:07:59;;;;;;;14.3;16.3;;;;;;;19;100;98230;;;;
2022/08/18 00:17:59;;;;;;;15.1;18.8;;;;;;;18.9;100;98230;;;;
2022/08/18 00:28:59;;;;;;;15.1;18.8;;;;;;;18.8;100;98230;;;;
2022/08/18 00:38:59;;;;;;;16.6;20.4;;;;;;;18.7;100;98240;;;;
2022/08/18 00:48:59;;;;;;;16.6;20.4;;;;;;;18.5;100;98230;;;;
2022/08/18 00:58:59;;;;;;;16.6;20.4;;;;;;;18.5;100;98230;;;;
2022/08/18 01:09:59;;;;;;;16.2;18.5;;;;;;;18.4;100;98220;;;;
2022/08/18 01:30:00;;;;;;;16.2;18.5;;;;;;;18.3;100;98210;;;;
2022/08/18 01:40:59;;;;;;;15.8;19;;;;;;;18.1;100;98210;;;;
2022/08/18 01:50:59;;;;;;;15.8;19;;;;;;;18;100;98220;;;;
2022/08/18 02:01:59;;;;;;;15.8;19;;;;;;;17.9;100;98210;;;;
2022/08/18 02:12:59;;;;;;;16.6;19.6;;;;;;;17.9;100;98210;;;;
2022/08/18 02:23:59;;;;;;;16.6;19.6;;;;;;;17.7;100;98190;;;;
2022/08/18 02:33:59;;;;;;;16.6;19.6;;;;;;;17.7;100;98190;;;;
2022/08/18 02:43:59;;;;;;;15.3;17.6;;;;;;;17.7;100;98190;;;;
2022/08/18 02:55:00;;;;;;;15.3;17.6;;;;;;;17.4;100;98180;;;;
2022/08/18 03:04:59;;;;;;;15.3;17.6;;;;;;;17.4;100;98180;;;;
2022/08/18 03:15:00;;;;;;;15.9;21;;;;;;;17.3;100;98200;;;;
2022/08/18 03:24:59;;;;;;;15.9;21;;;;;;;17.4;100;98220;;;;
2022/08/18 03:35:59;;;;;;;15.9;21;;;;;;;17.3;100;98210;;;;
2022/08/18 03:45:59;;;;;;;16.1;19.4;;;;;;;17.2;100;98210;;;;
2022/08/18 03:55:59;;;;;;;16.1;19.4;;;;;;;17.1;100;98230;;;;
2022/08/18 04:06:59;;;;;;;16.1;19.4;;;;;;;17.1;100;98240;;;;
2022/08/18 04:17:59;;;;;;;15.1;19;;;;;;;17.2;100;98250;;;;
2022/08/18 04:28:00;;;;;;;15.1;19;;;;;;;17.4;100;98260;;;;
2022/08/18 04:37:59;;;;;;;15.1;19;;;;;;;17.9;100;98260;;;;
2022/08/18 04:48:59;;;;;;;15.7;19.6;;;;;;;18.2;100;98270;;;;
2022/08/18 04:58:59;;;;;;;15.7;19.6;;;;;;;18.5;100;98280;;;;
2022/08/18 05:08:59;;;;;;;15.6;20.1;;;;;;;19;100;98280;;;;
2022/08/18 05:19:02;;;;;;;15.6;20.1;;;;;;;19.5;100;98280;;;;
2022/08/18 05:29:59;;;;;;;15.6;20.1;;;;;;;20;100;98280;;;;
2022/08/18 05:39:59;;;;;;;17.3;23.2;;;;;;;20.3;100;98280;;;;
2022/08/18 05:51:01;;;;;;;17.3;23.2;;;;;;;20.5;100;98280;;;;
2022/08/18 06:00:59;;;;;;;17.3;23.2;;;;;;;20.9;100;98280;;;;
2022/08/18 06:12:07;;;;;;;15.1;19.5;;;;;;;21.3;100;98280;;;;
2022/08/18 06:23:00;;;;;;;15.1;19.5;;;;;;;21.7;100;98280;;;;
2022/08/18 06:32:59;;;;;;;15.1;19.5;;;;;;;22.1;100;98290;;;;
2022/08/18 06:43:59;;;;;;;13.5;19.1;;;;;;;22.7;100;98300;;;;
2022/08/18 06:53:59;;;;;;;13.5;19.1;;;;;;;23;100;98320;;;;
2022/08/18 07:04:59;;;;;;;13.5;19.1;;;;;;;23.4;100;98330;;;;
2022/08/18 07:16:00;;;;;;;12.4;15.9;;;;;;;23.9;100;98330;;;;
2022/08/18 07:26:59;;;;;;;12.4;15.9;;;;;;;24.3;100;98320;;;;
2022/08/18 07:36:59;;;;;;;12.4;15.9;;;;;;;24.8;100;98310;;;;
2022/08/18 07:46:59;;;;;;;11.1;16.8;;;;;;;25;100;98310;;;;
2022/08/18 07:56:59;;;;;;;11.1;16.8;;;;;;;25.1;100;98300;;;;
2022/08/18 08:07:59;;;;;;;11.1;16.8;;;;;;;25.6;100;98290;;;;
2022/08/18 08:17:59;;;;;;;10.1;13.5;;;;;;;25.9;100;98290;;;;
2022/08/18 08:28:59;;;;;;;10.1;13.5;;;;;;;26.4;100;98300;;;;
2022/08/18 08:38:59;;;;;;;9.2;14.3;;;;;;;25.9;100;98290;;;;
2022/08/18 08:48:59;;;;;;;9.2;14.3;;;;;;;26.1;100;98300;;;;
2022/08/18 08:58:59;;;;;;;9.2;14.3;;;;;;;26.8;100;98320;;;;
2022/08/18 09:09:59;;;;;;;7.6;10.5;;;;;;;26.9;100;98320;;;;
2022/08/18 09:19:59;;;;;;;7.6;10.5;;;;;;;26.8;100;98330;;;;
2022/08/18 09:31:01;;;;;;;7.6;10.5;;;;;;;27.4;100;98330;;;;
2022/08/18 09:41:31;;;;;;;8;12;;;;;;;27.8;100;98330;;;;
2022/08/18 09:51:59;;;;;;;8;12;;;;;;;27.4;100;98330;;;;
2022/08/18 10:02:59;;;;;;;8;12;;;;;;;28;100;98340;;;;
2022/08/18 10:12:59;;;;;;;7.1;11.9;;;;;;;28.1;100;98330;;;;
2022/08/18 10:23:59;;;;;;;7.1;11.9;;;;;;;28.1;100;98310;;;;
2022/08/18 10:34:59;;;;;;;7.1;11.9;;;;;;;28.5;100;98310;;;;
2022/08/18 10:42:06;;;;;;;6.4;10.6;;;;;;;28.3;100;98320;;;;
2022/08/18 10:52:06;;;;;;;6.4;10.6;;;;;;;28.8;100;98290;;;;
2022/08/18 11:02:06;;;;;;;6.4;10.6;;;;;;;28.4;100;98290;;;;
2022/08/18 11:12:06;;;;;;;7.1;10.4;;;;;;;28.9;100;98270;;;;
2022/08/18 11:23:06;;;;;;;7.1;10.4;;;;;;;28.7;100;98270;;;;
2022/08/18 11:33:06;;;;;;;7.1;10.4;;;;;;;29;100;98260;;;;
2022/08/18 11:43:06;;;;;;;6.5;10.4;;;;;;;29.2;100;98250;;;;
2022/08/18 11:53:08;;;;;;;6.5;10.4;;;;;;;29.4;100;98240;;;;
2022/08/18 12:04:06;;;;;;;6.5;10.4;;;;;;;29.6;100;98230;;;;
2022/08/18 12:14:07;;;;;;;6.8;10.4;;;;;;;29.5;100;98210;;;;
2022/08/18 12:25:06;;;;;;;6.8;10.4;;;;;;;29;100;98200;;;;
2022/08/18 12:36:06;;;;;;;6.8;10.4;;;;;;;29.3;100;98180;;;;
2022/08/18 12:46:07;;;;;;;6.5;9.8;;;;;;;29.5;100;98170;;;;
2022/08/18 12:57:06;;;;;;;6.5;9.8;;;;;;;29.8;100;98180;;;;
2022/08/18 13:07:06;;;;;;;6.5;9.8;;;;;;;29.7;100;98180;;;;
2022/08/18 13:18:07;;;;;;;5.3;8.4;;;;;;;29.4;100;98180;;;;
2022/08/18 13:28:06;;;;;;;5.3;8.4;;;;;;;30.2;100;98180;;;;
2022/08/18 13:39:07;;;;;;;5.3;8.4;;;;;;;30.1;100;98190;;;;
2022/08/18 13:49:06;;;;;;;5.2;8.1;;;;;;;29.9;100;98200;;;;
2022/08/18 13:59:06;;;;;;;5.2;8.1;;;;;;;30.2;98.9;98200;;;;
2022/08/18 14:09:06;;;;;;;5.2;8.1;;;;;;;30.3;98.1;98210;;;;
2022/08/18 14:30:06;;;;;;;5.3;8.7;;;;;;;31.5;94.7;98210;;;;
2022/08/18 14:41:06;;;;;;;5.9;11.8;;;;;;;31.1;95.9;98200;;;;
2022/08/18 14:51:07;;;;;;;5.9;11.8;;;;;;;30.6;93.7;98180;;;;
2022/08/18 15:01:07;;;;;;;5.9;11.8;;;;;;;31.1;95.1;98180;;;;
2022/08/18 15:12:07;;;;;;;4.8;8.1;;;;;;;30.7;95.8;98180;;;;
2022/08/18 15:32:07;;;;;;;4.8;8.1;;;;;;;33.2;82.6;98170;;;;
2022/08/18 15:43:06;;;;;;;4.5;7.7;;;;;;;34.6;73.4;98180;;;;
2022/08/18 15:53:06;;;;;;;4.5;7.7;;;;;;;35.2;73.3;98190;;;;
2022/08/18 16:03:06;;;;;;;4.5;7.7;;;;;;;35.1;72.6;98190;;;;
2022/08/18 16:13:06;;;;;;;4.9;7.9;;;;;;;34.1;73.6;98180;;;;
2022/08/18 16:24:06;;;;;;;4.9;7.9;;;;;;;31.9;82;98160;;;;
2022/08/18 16:34:06;;;;;;;4.9;7.9;;;;;;;30.3;87.9;98140;;;;
2022/08/18 16:45:07;;;;;;;5.7;10.4;;;;;;;29.9;90.2;98150;;;;
2022/08/18 16:56:06;;;;;;;5.7;10.4;;;;;;;29.1;94.1;98160;;;;
2022/08/18 17:07:06;;;;;;;5.7;10.4;;;;;;;28.5;96.7;98140;;;;
2022/08/18 17:17:07;;;;;;;5.3;11;;;;;;;27.7;100;98130;;;;
2022/08/18 17:27:06;;;;;;;5.3;11;;;;;;;27.3;100;98110;;;;
2022/08/18 17:38:06;;;;;;;5.3;11;;;;;;;26.8;100;98120;;;;
2022/08/18 17:49:06;;;;;;;5.4;10.4;;;;;;;26.1;100;98130;;;;
2022/08/18 17:59:06;;;;;;;5.4;10.4;;;;;;;25.7;100;98130;;;;
2022/08/18 18:09:07;;;;;;;5.4;10.4;;;;;;;25.4;100;98160;;;;
2022/08/18 18:20:08;;;;;;;5.5;8.7;;;;;;;24.8;100;98170;;;;
2022/08/18 18:31:07;;;;;;;5.5;8.7;;;;;;;24.5;100;98170;;;;
2022/08/18 18:41:08;;;;;;;6.2;11;;;;;;;24.2;100;98180;;;;
2022/08/18 18:52:07;;;;;;;6.2;11;;;;;;;23.9;100;98170;;;;
2022/08/18 19:03:07;;;;;;;6.2;11;;;;;;;23.7;100;98160;;;;
2022/08/18 19:14:07;;;;;;;6.9;11.1;;;;;;;23.5;100;98140;;;;
2022/08/18 19:24:06;;;;;;;6.9;11.1;;;;;;;23.4;100;98130;;;;
2022/08/18 19:35:07;;;;;;;6.9;11.1;;;;;;;23.1;100;98110;;;;
2022/08/18 19:46:06;;;;;;;6.6;10.8;;;;;;;23;100;98080;;;;
2022/08/18 19:56:07;;;;;;;6.6;10.8;;;;;;;22.9;100;98080;;;;
2022/08/18 20:06:07;;;;;;;6.6;10.8;;;;;;;22.8;100;98060;;;;
2022/08/18 20:17:07;;;;;;;6.6;8.9;;;;;;;22.8;100;98060;;;;
2022/08/18 20:27:07;;;;;;;6.6;8.9;;;;;;;22.7;100;98070;;;;
2022/08/18 20:38:07;;;;;;;6.6;8.9;;;;;;;22.7;100;98070;;;;
2022/08/18 20:48:07;;;;;;;6.6;10.5;;;;;;;22.5;100;98070;;;;
2022/08/18 20:59:07;;;;;;;6.6;10.5;;;;;;;22.4;100;98080;;;;
2022/08/18 21:09:07;;;;;;;6.6;10.5;;;;;;;22.3;100;98080;;;;
2022/08/18 21:19:07;;;;;;;7.4;13.4;;;;;;;22;100;98060;;;;
2022/08/18 21:29:07;;;;;;;7.4;13.4;;;;;;;21.9;100;98070;;;;
2022/08/18 21:40:07;;;;;;;7.4;13.4;;;;;;;21.7;100;98050;;;;
2022/08/18 21:50:07;;;;;;;8.3;12.2;;;;;;;21.6;100;98070;;;;
2022/08/18 22:01:07;;;;;;;8.3;12.2;;;;;;;21.4;100;98070;;;;
2022/08/18 22:33:07;;;;;;;8.6;10.3;;;;;;;20.8;100;98080;;;;
2022/08/18 22:43:07;;;;;;;9.2;14.8;;;;;;;20.6;100;98080;;;;
2022/08/18 22:53:07;;;;;;;9.2;14.8;;;;;;;20.5;100;98080;;;;
2022/08/18 23:04:07;;;;;;;9.2;14.8;;;;;;;20.3;100;98070;;;;
2022/08/18 23:15:09;;;;;;;9.4;12.1;;;;;;;20.1;100;98070;;;;
2022/08/18 23:25:07;;;;;;;9.4;12.1;;;;;;;20.1;100;98070;;;;
2022/08/18 23:35:07;;;;;;;9.4;12.1;;;;;;;20;100;98070;;;;
2022/08/18 23:46:07;;;;;;;10.4;14;;;;;;;19.9;100;98070;;;;
2022/08/18 23:56:07;;;;;;;10.4;14;;;;;;;19.8;100;98070;;;;
